createdAt,value
2024-01-06T00:00:05.729Z,213.52
2024-01-06T00:02:32.305Z,212.98
2024-01-06T00:04:58.904Z,202.50
2024-01-06T00:07:25.425Z,206.60
2024-01-06T00:09:52.116Z,193.68
2024-01-06T00:12:18.739Z,223.60
2024-01-06T00:14:45.304Z,198.35
2024-01-06T00:17:12.587Z,191.80
2024-01-06T00:19:39.184Z,191.90
2024-01-06T00:22:05.879Z,183.13
2024-01-06T00:24:32.564Z,145.63
2024-01-06T00:26:59.109Z,115.70
2024-01-06T00:29:25.630Z,141.02
2024-01-06T00:31:52.235Z,163.75
2024-01-06T00:34:18.898Z,174.18
2024-01-06T00:36:45.585Z,152.93
2024-01-06T00:39:12.224Z,131.93
2024-01-06T00:41:38.799Z,268.55
2024-01-06T00:44:05.329Z,290.15
2024-01-06T00:46:31.879Z,254.35
2024-01-06T00:48:58.537Z,267.90
2024-01-06T00:51:25.204Z,232.95
2024-01-06T00:53:51.786Z,192.40
2024-01-06T00:56:18.291Z,187.95
2024-01-06T00:58:44.852Z,177.18
2024-01-06T01:01:11.530Z,158.45
2024-01-06T01:03:38.167Z,143.60
2024-01-06T01:06:04.960Z,121.00
2024-01-06T01:08:31.611Z,128.88
2024-01-06T01:10:58.557Z,140.38
2024-01-06T01:13:25.154Z,123.82
2024-01-06T01:15:52.467Z,118.72
2024-01-06T01:18:19.482Z,385.90
2024-01-06T01:20:46.145Z,196.88
2024-01-06T01:23:12.672Z,163.05
2024-01-06T01:25:39.244Z,165.88
2024-01-06T01:28:05.979Z,182.65
2024-01-06T01:30:32.673Z,170.90
2024-01-06T01:32:59.783Z,246.18
2024-01-06T01:35:26.340Z,201.10
2024-01-06T01:37:52.962Z,153.25
2024-01-06T01:40:19.522Z,168.07
2024-01-06T01:42:46.098Z,147.05
2024-01-06T01:45:13.623Z,117.93
2024-01-06T01:47:40.682Z,134.63
2024-01-06T01:50:08.914Z,155.07
2024-01-06T01:52:37.588Z,161.73
2024-01-06T01:55:04.540Z,165.77
2024-01-06T01:57:31.722Z,166.55
2024-01-06T01:59:58.554Z,164.63
2024-01-06T02:02:25.243Z,139.55
2024-01-06T02:04:51.846Z,139.50
2024-01-06T02:07:18.522Z,151.20
2024-01-06T02:09:45.284Z,141.55
2024-01-06T02:12:12.035Z,133.65
2024-01-06T02:14:38.709Z,124.07
2024-01-06T02:17:05.264Z,127.40
2024-01-06T02:19:31.978Z,119.38
2024-01-06T02:21:58.660Z,119.38
2024-01-06T02:24:25.205Z,148.35
2024-01-06T02:26:51.812Z,161.73
2024-01-06T02:29:18.574Z,164.80
2024-01-06T02:31:45.236Z,174.25
2024-01-06T02:34:12.233Z,171.00
2024-01-06T02:36:38.945Z,152.40
2024-01-06T02:39:05.492Z,158.30
2024-01-06T02:41:32.092Z,146.02
2024-01-06T02:43:58.648Z,144.32
2024-01-06T02:46:25.242Z,136.73
2024-01-06T02:48:52.030Z,133.63
2024-01-06T02:51:18.707Z,133.13
2024-01-06T02:53:45.328Z,154.38
2024-01-06T02:56:12.821Z,153.20
2024-01-06T02:58:40.412Z,137.73
2024-01-06T03:06:00.636Z,94.97
2024-01-06T03:08:27.160Z,107.97
2024-01-06T03:10:53.689Z,110.47
2024-01-06T03:13:20.305Z,124.95
2024-01-06T03:15:47.018Z,139.73
2024-01-06T03:18:13.803Z,171.15
2024-01-06T03:20:40.470Z,129.02
2024-01-06T03:23:06.985Z,138.02
2024-01-06T03:25:33.578Z,140.57
2024-01-06T03:28:00.169Z,124.72
2024-01-06T03:30:26.864Z,123.60
2024-01-06T03:32:53.533Z,102.07
2024-01-06T03:35:20.189Z,194.82
2024-01-06T03:37:46.710Z,110.30
2024-01-06T03:40:13.647Z,98.57
2024-01-06T03:42:40.278Z,106.28
2024-01-06T03:45:07.314Z,120.03
2024-01-06T03:47:33.834Z,104.93
2024-01-06T03:50:00.402Z,118.25
2024-01-06T03:52:27.031Z,141.88
2024-01-06T03:54:53.619Z,156.77
2024-01-06T03:57:20.221Z,192.00
2024-01-06T03:59:46.837Z,148.43
2024-01-06T04:02:13.466Z,113.15
2024-01-06T04:04:40.119Z,85.40
2024-01-06T04:07:06.736Z,87.00
2024-01-06T04:09:33.329Z,138.45
2024-01-06T04:11:59.941Z,114.80
2024-01-06T04:14:26.489Z,104.65
2024-01-06T04:16:53.063Z,87.65
2024-01-06T04:19:19.738Z,74.55
2024-01-06T04:21:46.404Z,86.70
2024-01-06T04:24:13.004Z,73.00
2024-01-06T04:26:39.556Z,104.68
2024-01-06T04:29:06.132Z,102.47
2024-01-06T04:31:32.734Z,66.80
2024-01-06T04:33:59.482Z,72.35
2024-01-06T04:36:26.121Z,60.90
2024-01-06T04:38:52.739Z,62.63
2024-01-06T04:41:19.310Z,53.65
2024-01-06T04:43:45.894Z,60.08
2024-01-06T04:46:12.599Z,62.03
2024-01-06T04:48:41.977Z,67.07
2024-01-06T04:51:08.651Z,59.75
2024-01-06T04:53:35.278Z,69.85
2024-01-06T04:56:01.861Z,71.68
2024-01-06T04:58:28.488Z,63.22
2024-01-06T05:00:55.280Z,57.22
2024-01-06T05:03:21.960Z,55.92
2024-01-06T05:05:48.634Z,62.08
2024-01-06T05:08:15.254Z,68.68
2024-01-06T05:10:41.908Z,70.93
2024-01-06T05:13:08.442Z,69.40
2024-01-06T05:15:35.176Z,58.85
2024-01-06T05:18:01.929Z,59.25
2024-01-06T05:20:28.603Z,66.32
2024-01-06T05:22:55.303Z,62.80
2024-01-06T05:25:21.957Z,74.00
2024-01-06T05:27:48.571Z,63.15
2024-01-06T05:30:15.343Z,54.38
2024-01-06T05:32:42.141Z,55.22
2024-01-06T05:35:08.944Z,72.00
2024-01-06T05:37:35.571Z,85.90
2024-01-06T05:40:02.461Z,99.35
2024-01-06T05:42:29.087Z,127.63
2024-01-06T05:44:55.697Z,115.93
2024-01-06T05:47:22.903Z,94.72
2024-01-06T05:49:49.464Z,110.65
2024-01-06T05:52:16.511Z,87.03
2024-01-06T05:54:43.488Z,82.65
2024-01-06T05:57:10.163Z,92.40
2024-01-06T05:59:36.745Z,91.47
2024-01-06T06:02:03.446Z,69.65
2024-01-06T06:04:30.198Z,81.65
2024-01-06T06:06:59.185Z,101.32
2024-01-06T06:09:26.799Z,182.68
2024-01-06T06:11:53.391Z,156.40
2024-01-06T06:14:19.930Z,144.75
2024-01-06T06:16:46.505Z,127.85
2024-01-06T06:19:13.134Z,117.40
2024-01-06T06:21:39.731Z,98.60
2024-01-06T06:24:06.643Z,110.90
2024-01-06T06:26:33.226Z,110.38
2024-01-06T06:28:59.747Z,134.38
2024-01-06T06:31:26.411Z,209.40
2024-01-06T06:33:53.185Z,172.85
2024-01-06T06:36:19.817Z,136.15
2024-01-06T06:38:46.602Z,160.23
2024-01-06T06:41:13.164Z,173.88
2024-01-06T06:43:39.696Z,134.95
2024-01-06T06:46:06.334Z,153.85
2024-01-06T06:48:32.903Z,178.30
2024-01-06T06:50:59.465Z,204.30
2024-01-06T06:53:26.091Z,218.15
2024-01-06T06:55:52.610Z,215.48
2024-01-06T06:58:19.148Z,207.95
2024-01-06T07:00:45.754Z,192.65
2024-01-06T07:03:13.661Z,239.60
2024-01-06T07:05:40.483Z,281.45
2024-01-06T07:08:07.359Z,278.13
2024-01-06T07:10:33.905Z,262.17
2024-01-06T07:13:00.433Z,257.13
2024-01-06T07:15:26.967Z,242.60
2024-01-06T07:17:53.642Z,202.93
2024-01-06T07:20:20.372Z,132.15
2024-01-06T07:22:46.956Z,116.30
2024-01-06T07:25:13.490Z,121.82
2024-01-06T07:27:40.060Z,133.50
2024-01-06T07:30:07.244Z,118.00
2024-01-06T07:32:33.813Z,139.38
2024-01-06T07:35:02.372Z,164.65
2024-01-06T07:37:30.630Z,174.10
2024-01-06T07:39:57.199Z,233.40
2024-01-06T07:42:23.883Z,271.08
2024-01-06T07:44:50.632Z,289.73
2024-01-06T07:47:17.137Z,310.02
2024-01-06T07:49:43.848Z,344.25
2024-01-06T07:52:10.489Z,357.05
2024-01-06T07:54:37.095Z,316.67
2024-01-06T07:57:03.946Z,276.67
2024-01-06T07:59:30.533Z,261.38
2024-01-06T08:01:57.101Z,211.07
2024-01-06T08:04:23.770Z,262.20
2024-01-06T08:06:51.792Z,264.10
2024-01-06T08:09:19.516Z,222.38
2024-01-06T08:11:46.097Z,260.85
2024-01-06T08:14:12.741Z,218.38
2024-01-06T08:16:39.291Z,219.60
2024-01-06T08:19:06.061Z,212.98
2024-01-06T08:21:32.766Z,220.85
2024-01-06T08:23:59.301Z,211.82
2024-01-06T08:26:25.876Z,208.07
2024-01-06T08:28:52.515Z,208.52
2024-01-06T08:31:19.478Z,182.65
2024-01-06T08:33:46.236Z,171.05
2024-01-06T08:36:13.113Z,201.25
2024-01-06T08:38:39.676Z,190.82
2024-01-06T08:41:06.234Z,152.75
2024-01-06T08:43:32.811Z,150.55
2024-01-06T08:45:59.464Z,149.30
2024-01-06T08:48:26.156Z,164.13
2024-01-06T08:50:53.006Z,152.18
2024-01-06T08:53:19.555Z,208.63
2024-01-06T08:55:47.336Z,185.63
2024-01-06T08:58:14.309Z,183.30
2024-01-06T09:00:41.033Z,174.82
2024-01-06T09:03:07.711Z,209.52
2024-01-06T09:05:34.293Z,160.55
2024-01-06T09:08:00.882Z,145.80
2024-01-06T09:10:27.452Z,147.32
2024-01-06T09:12:54.028Z,130.20
2024-01-06T09:15:20.630Z,145.23
2024-01-06T09:17:47.351Z,119.43
2024-01-06T09:20:14.017Z,125.35
2024-01-06T09:22:40.556Z,116.32
2024-01-06T09:25:07.604Z,125.47
2024-01-06T09:27:34.205Z,159.52
2024-01-06T09:30:00.755Z,124.45
2024-01-06T09:32:27.303Z,180.15
2024-01-06T09:34:54.157Z,198.05
2024-01-06T09:37:20.889Z,203.85
2024-01-06T09:39:47.459Z,173.73
2024-01-06T09:42:14.096Z,143.18
2024-01-06T09:44:40.700Z,129.25
2024-01-06T09:47:07.333Z,127.35
2024-01-06T09:49:35.921Z,138.85
2024-01-06T09:52:04.574Z,134.52
2024-01-06T09:54:31.701Z,142.98
2024-01-06T09:56:58.587Z,166.02
2024-01-06T09:59:25.494Z,147.52
2024-01-06T10:01:52.091Z,163.63
2024-01-06T10:04:21.491Z,191.68
2024-01-06T10:06:50.125Z,181.45
2024-01-06T10:09:16.669Z,161.82
2024-01-06T10:11:43.285Z,179.57
2024-01-06T10:14:09.829Z,166.63
2024-01-06T10:16:37.406Z,226.23
2024-01-06T10:19:04.469Z,233.57
2024-01-06T10:21:33.257Z,235.52
2024-01-06T10:24:01.049Z,237.50
2024-01-06T10:26:28.001Z,201.98
2024-01-06T10:28:54.691Z,194.73
2024-01-06T10:31:21.352Z,213.88
2024-01-06T10:33:48.799Z,268.15
2024-01-06T10:38:42.073Z,209.00
2024-01-06T10:41:09.144Z,161.05
2024-01-06T10:43:36.854Z,129.75
2024-01-06T10:46:06.957Z,100.45
2024-01-06T10:48:35.800Z,99.18
2024-01-06T10:51:02.854Z,96.80
2024-01-06T10:53:30.649Z,85.60
2024-01-06T10:55:58.568Z,70.65
2024-01-06T10:58:25.382Z,69.00
2024-01-06T11:00:52.320Z,70.03
2024-01-06T11:03:19.464Z,75.03
2024-01-06T11:05:46.540Z,80.20
2024-01-06T11:08:13.584Z,90.70
2024-01-06T11:10:41.431Z,118.68
2024-01-06T11:13:15.631Z,141.88
2024-01-06T11:15:42.932Z,185.85
2024-01-06T11:18:09.652Z,169.07
2024-01-06T11:20:36.336Z,195.60
2024-01-06T11:23:20.075Z,235.43
2024-01-06T11:25:46.710Z,257.67
2024-01-06T11:28:13.456Z,222.15
2024-01-06T11:30:40.218Z,216.98
2024-01-06T11:33:06.954Z,234.68
2024-01-06T11:35:33.553Z,256.17
2024-01-06T11:38:03.384Z,319.02
2024-01-06T11:40:35.418Z,210.93
2024-01-06T11:43:09.824Z,224.00
2024-01-06T11:45:38.922Z,186.95
2024-01-06T11:48:07.554Z,144.75
2024-01-06T11:50:36.227Z,174.75
2024-01-06T11:53:04.711Z,125.82
2024-01-06T11:55:31.491Z,140.00
2024-01-06T11:57:58.251Z,157.75
2024-01-06T12:00:25.174Z,166.98
2024-01-06T12:02:57.263Z,207.40
2024-01-06T12:05:23.909Z,193.50
2024-01-06T12:08:00.246Z,182.45
2024-01-06T12:10:28.517Z,260.85
2024-01-06T12:13:06.155Z,223.35
2024-01-06T12:15:34.024Z,190.02
2024-01-06T12:18:04.548Z,183.43
2024-01-06T12:20:32.374Z,161.30
2024-01-06T12:22:58.983Z,174.85
2024-01-06T12:25:26.761Z,171.30
2024-01-06T12:27:53.857Z,172.32
2024-01-06T12:30:22.599Z,165.32
2024-01-06T12:32:50.519Z,153.18
2024-01-06T12:35:17.972Z,107.40
2024-01-06T12:37:44.810Z,120.93
2024-01-06T12:40:13.208Z,118.32
2024-01-06T12:42:40.984Z,105.97
2024-01-06T12:45:07.942Z,104.53
2024-01-06T12:47:35.100Z,100.13
2024-01-06T12:50:01.849Z,101.13
2024-01-06T12:52:28.416Z,100.13
2024-01-06T12:54:55.063Z,103.45
2024-01-06T12:57:21.831Z,94.53
2024-01-06T12:59:48.425Z,120.50
2024-01-06T13:02:15.065Z,167.27
2024-01-06T13:04:41.633Z,207.30
2024-01-06T13:07:08.444Z,161.68
2024-01-06T13:09:35.147Z,165.77
2024-01-06T13:12:01.899Z,189.05
2024-01-06T13:14:28.969Z,195.20
2024-01-06T13:16:55.493Z,131.48
2024-01-06T13:19:22.089Z,301.38
2024-01-06T13:21:48.806Z,206.38
2024-01-06T13:24:15.354Z,169.95
2024-01-06T13:26:41.933Z,183.25
2024-01-06T13:29:08.535Z,181.35
2024-01-06T13:31:35.377Z,240.68
2024-01-06T13:34:02.140Z,267.75
2024-01-06T13:36:28.777Z,277.42
2024-01-06T13:38:55.330Z,278.10
2024-01-06T13:41:22.521Z,290.52
2024-01-06T13:43:49.162Z,296.95
2024-01-06T13:46:15.695Z,274.70
2024-01-06T13:48:42.390Z,251.88
2024-01-06T13:51:09.844Z,245.60
2024-01-06T13:53:36.483Z,288.08
2024-01-06T13:56:03.245Z,246.75
2024-01-06T13:58:29.837Z,312.23
2024-01-06T14:00:56.515Z,254.60
2024-01-06T14:03:23.206Z,263.13
2024-01-06T14:05:50.097Z,253.40
2024-01-06T14:08:16.627Z,261.08
2024-01-06T14:10:43.242Z,249.68
2024-01-06T14:13:09.955Z,175.85
2024-01-06T14:15:36.539Z,156.55
2024-01-06T14:18:04.993Z,197.52
2024-01-06T14:20:31.750Z,272.98
2024-01-06T14:22:58.276Z,209.48
2024-01-06T14:25:25.445Z,246.20
2024-01-06T14:27:52.104Z,216.38
2024-01-06T14:30:18.853Z,172.55
2024-01-06T14:32:45.656Z,196.88
2024-01-06T14:35:12.458Z,202.18
2024-01-06T14:37:39.703Z,178.77
2024-01-06T14:40:08.369Z,190.50
2024-01-06T14:42:35.097Z,319.67
2024-01-06T14:45:01.620Z,256.55
2024-01-06T14:47:28.139Z,190.43
2024-01-06T14:49:54.916Z,207.73
2024-01-06T14:52:21.588Z,270.38
2024-01-06T14:54:48.188Z,274.55
2024-01-06T14:57:14.806Z,317.58
2024-01-06T14:59:41.303Z,401.73
2024-01-06T15:02:07.872Z,432.80
2024-01-06T15:04:34.541Z,450.00
2024-01-06T15:07:01.188Z,408.65
2024-01-06T15:09:27.738Z,314.45
2024-01-06T15:11:54.322Z,420.95
2024-01-06T15:14:20.897Z,300.05
2024-01-06T15:16:47.421Z,201.35
2024-01-06T15:19:14.100Z,262.92
2024-01-06T15:21:40.750Z,275.45
2024-01-06T15:24:08.297Z,277.88
2024-01-06T15:29:01.421Z,263.40
2024-01-06T15:31:30.929Z,306.30
2024-01-06T15:33:57.822Z,321.90
2024-01-06T15:36:24.575Z,268.95
2024-01-06T15:38:51.287Z,337.60
2024-01-06T15:41:19.343Z,439.08
2024-01-06T15:43:46.333Z,446.38
2024-01-06T15:46:12.932Z,440.63
2024-01-06T15:48:39.714Z,366.35
2024-01-06T15:51:06.410Z,400.65
2024-01-06T15:53:33.011Z,352.65
2024-01-06T15:55:59.537Z,277.02
2024-01-06T15:58:26.127Z,264.15
2024-01-06T16:00:52.792Z,227.32
2024-01-06T16:03:19.460Z,246.15
2024-01-06T16:05:46.533Z,315.45
2024-01-06T16:08:13.349Z,323.27
2024-01-06T16:10:40.214Z,269.33
2024-01-06T16:13:06.851Z,365.08
2024-01-06T16:15:33.521Z,308.90
2024-01-06T16:18:00.237Z,326.08
2024-01-06T16:20:26.868Z,319.98
2024-01-06T16:22:53.430Z,346.05
2024-01-06T16:25:19.976Z,380.92
2024-01-06T16:27:46.617Z,315.42
2024-01-06T16:30:13.860Z,244.82
2024-01-06T16:32:40.537Z,276.65
2024-01-06T16:35:07.472Z,265.85
2024-01-06T16:37:34.140Z,254.48
2024-01-06T16:40:00.905Z,246.75
2024-01-06T16:42:27.662Z,322.10
2024-01-06T16:44:54.217Z,357.15
2024-01-06T16:47:20.849Z,311.42
2024-01-06T16:49:47.488Z,299.77
2024-01-06T16:52:14.043Z,299.75
2024-01-06T16:54:40.648Z,315.15
2024-01-06T16:57:07.227Z,384.08
2024-01-06T16:59:33.768Z,340.38
2024-01-06T17:02:00.523Z,324.23
2024-01-06T17:04:27.790Z,341.80
2024-01-06T17:06:56.495Z,358.98
2024-01-06T17:09:24.489Z,346.15
2024-01-06T17:11:51.007Z,335.80
2024-01-06T17:14:17.512Z,314.38
2024-01-06T17:16:44.103Z,326.20
2024-01-06T17:19:10.877Z,400.17
2024-01-06T17:21:37.472Z,432.45
2024-01-06T17:24:04.740Z,405.40
2024-01-06T17:26:31.319Z,374.58
2024-01-06T17:28:57.874Z,353.70
2024-01-06T17:31:24.483Z,364.08
2024-01-06T17:33:51.119Z,295.42
2024-01-06T17:36:17.848Z,384.58
2024-01-06T17:38:44.520Z,377.80
2024-01-06T17:41:11.107Z,396.08
2024-01-06T17:43:37.663Z,320.88
2024-01-06T17:46:04.456Z,346.83
2024-01-06T17:48:31.227Z,249.13
2024-01-06T17:50:57.893Z,251.00
2024-01-06T17:53:24.526Z,266.08
2024-01-06T17:55:51.158Z,274.08
2024-01-06T17:58:17.717Z,259.90
2024-01-06T18:00:44.342Z,256.10
2024-01-06T18:03:10.916Z,249.63
2024-01-06T18:05:37.488Z,261.25
2024-01-06T18:08:04.276Z,258.88
2024-01-06T18:10:30.846Z,283.13
2024-01-06T18:12:57.464Z,321.60
2024-01-06T18:15:24.085Z,363.85
2024-01-06T18:17:50.717Z,373.70
2024-01-06T18:20:17.313Z,452.10
2024-01-06T18:22:43.897Z,398.50
2024-01-06T18:25:10.436Z,371.25
2024-01-06T18:27:36.983Z,344.58
2024-01-06T18:30:03.984Z,434.15
2024-01-06T18:32:30.723Z,426.13
2024-01-06T18:34:57.381Z,431.85
2024-01-06T18:37:24.054Z,394.08
2024-01-06T18:39:50.603Z,413.73
2024-01-06T18:42:17.160Z,396.70
2024-01-06T18:44:43.697Z,388.65
2024-01-06T18:47:10.268Z,376.35
2024-01-06T18:49:36.960Z,367.98
2024-01-06T18:52:03.956Z,372.17
2024-01-06T18:54:34.884Z,382.52
2024-01-06T18:57:05.046Z,411.55
2024-01-06T18:59:31.588Z,440.50
2024-01-06T19:01:58.221Z,478.20
2024-01-06T19:04:24.866Z,490.92
2024-01-06T19:06:51.434Z,422.15
2024-01-06T19:09:18.129Z,410.52
2024-01-06T19:11:44.782Z,435.20
2024-01-06T19:14:11.362Z,431.25
2024-01-06T19:16:37.892Z,395.70
2024-01-06T19:19:04.546Z,371.25
2024-01-06T19:21:31.201Z,295.33
2024-01-06T19:23:57.719Z,252.15
2024-01-06T19:26:24.306Z,204.82
2024-01-06T19:28:50.805Z,235.65
2024-01-06T19:31:17.432Z,264.38
2024-01-06T19:33:44.082Z,423.90
2024-01-06T19:36:11.104Z,511.73
2024-01-06T19:38:37.642Z,509.65
2024-01-06T19:41:04.382Z,478.77
2024-01-06T19:43:32.781Z,448.67
2024-01-06T19:46:02.493Z,447.15
2024-01-06T19:48:29.397Z,495.20
2024-01-06T19:50:56.001Z,538.72
2024-01-06T19:53:22.569Z,518.80
2024-01-06T19:55:49.180Z,513.95
2024-01-06T19:58:15.730Z,455.05
2024-01-06T20:00:42.353Z,421.70
2024-01-06T20:03:11.593Z,372.30
2024-01-06T20:05:38.856Z,362.63
2024-01-06T20:08:05.715Z,295.30
2024-01-06T20:10:32.601Z,240.63
2024-01-06T20:12:59.268Z,259.80
2024-01-06T20:15:25.904Z,275.58
2024-01-06T20:17:52.712Z,261.88
2024-01-06T20:20:19.532Z,273.55
2024-01-06T20:22:46.096Z,278.20
2024-01-06T20:25:13.062Z,317.40
2024-01-06T20:27:39.641Z,356.45
2024-01-06T20:30:06.901Z,450.02
2024-01-06T20:32:35.513Z,442.30
2024-01-06T20:35:04.204Z,452.10
2024-01-06T20:37:30.829Z,501.00
2024-01-06T20:39:57.417Z,436.38
2024-01-06T20:42:24.057Z,432.65
2024-01-06T20:44:50.722Z,415.65
2024-01-06T20:47:17.247Z,419.60
2024-01-06T20:49:43.993Z,431.13
2024-01-06T20:52:10.656Z,413.10
2024-01-06T20:54:40.261Z,436.25
2024-01-06T20:57:06.840Z,436.80
2024-01-06T20:59:33.426Z,446.35
2024-01-06T21:02:00.068Z,395.83
2024-01-06T21:04:26.682Z,359.70
2024-01-06T21:06:53.212Z,407.40
2024-01-06T21:09:19.798Z,374.13
2024-01-06T21:11:46.334Z,360.38
2024-01-06T21:14:12.848Z,346.80
2024-01-06T21:16:40.296Z,344.52
2024-01-06T21:19:06.943Z,347.45
2024-01-06T21:21:33.555Z,387.77
2024-01-06T21:24:00.098Z,424.77
2024-01-06T21:26:27.596Z,386.40
2024-01-06T21:28:54.220Z,381.95
2024-01-06T21:31:20.852Z,337.67
2024-01-06T21:33:47.856Z,347.05
2024-01-06T21:36:14.670Z,353.58
2024-01-06T21:38:41.201Z,364.92
2024-01-06T21:41:07.673Z,343.52
2024-01-06T21:43:34.197Z,358.33
2024-01-06T21:46:00.954Z,347.38
2024-01-06T21:48:27.666Z,283.85
2024-01-06T21:50:54.211Z,298.35
2024-01-06T21:53:20.798Z,281.73
2024-01-06T21:55:48.413Z,303.05
2024-01-06T22:00:41.803Z,264.05
2024-01-06T22:03:11.701Z,291.90
2024-01-06T22:05:38.500Z,244.57
2024-01-06T22:08:05.642Z,214.52
2024-01-06T22:10:32.226Z,169.63
2024-01-06T22:13:05.445Z,184.07
2024-01-06T22:15:35.140Z,156.43
2024-01-06T22:18:03.077Z,167.05
2024-01-06T22:20:29.716Z,154.10
2024-01-06T22:22:56.267Z,157.63
2024-01-06T22:25:22.776Z,155.20
2024-01-06T22:27:50.670Z,198.52
2024-01-06T22:30:17.291Z,171.38
2024-01-06T22:32:45.187Z,164.05
2024-01-06T22:35:11.877Z,164.35
2024-01-06T22:37:38.510Z,184.57
2024-01-06T22:40:05.659Z,192.05
2024-01-06T22:42:32.404Z,181.27
2024-01-06T22:44:59.160Z,172.77
2024-01-06T22:47:26.226Z,168.60
2024-01-06T22:49:52.893Z,210.23
2024-01-06T22:52:19.412Z,172.05
2024-01-06T22:54:45.988Z,146.38
2024-01-06T22:57:12.591Z,201.10
2024-01-06T22:59:39.208Z,267.35
2024-01-06T23:02:05.799Z,370.60
2024-01-06T23:04:32.406Z,335.98
2024-01-06T23:06:59.077Z,359.42
2024-01-06T23:09:25.670Z,366.17
2024-01-06T23:11:52.230Z,347.52
2024-01-06T23:14:18.821Z,382.35
2024-01-06T23:16:45.438Z,449.38
2024-01-06T23:19:12.219Z,374.58
2024-01-06T23:21:38.855Z,320.90
2024-01-06T23:24:05.792Z,321.88
2024-01-06T23:26:32.334Z,348.95
2024-01-06T23:28:58.906Z,434.73
2024-01-06T23:31:25.471Z,367.08
2024-01-06T23:33:52.297Z,334.70
2024-01-06T23:36:18.956Z,339.83
2024-01-06T23:38:45.513Z,319.75
2024-01-06T23:41:13.932Z,320.98
2024-01-06T23:43:40.490Z,316.05
2024-01-06T23:46:07.050Z,307.23
2024-01-06T23:48:33.692Z,359.95
2024-01-06T23:51:00.277Z,381.13
2024-01-06T23:53:26.874Z,365.17
2024-01-06T23:55:53.435Z,436.63
2024-01-06T23:58:20.004Z,406.38
